sensor_id;sensor_type;location;lat;lon;timestamp;P1;durP1;ratioP1;P2;durP2;ratioP2
50585;SDS011;36542;51.700;8.846;2022-12-11T00:00:44;44.27;;;23.33;;
50585;SDS011;36542;51.700;8.846;2022-12-11T00:03:10;44.53;;;23.63;;
50585;SDS011;36542;51.700;8.846;2022-12-11T00:05:38;42.40;;;24.17;;
50585;SDS011;36542;51.700;8.846;2022-12-11T00:08:04;42.53;;;24.67;;
50585;SDS011;36542;51.700;8.846;2022-12-11T00:10:30;44.03;;;24.27;;
50585;SDS011;36542;51.700;8.846;2022-12-11T00:12:55;41.53;;;23.10;;
50585;SDS011;36542;51.700;8.846;2022-12-11T00:15:21;46.87;;;25.67;;
50585;SDS011;36542;51.700;8.846;2022-12-11T00:17:46;43.63;;;23.23;;
50585;SDS011;36542;51.700;8.846;2022-12-11T00:20:12;42.67;;;23.07;;
50585;SDS011;36542;51.700;8.846;2022-12-11T00:22:38;38.27;;;22.10;;
50585;SDS011;36542;51.700;8.846;2022-12-11T00:25:03;46.00;;;23.70;;
50585;SDS011;36542;51.700;8.846;2022-12-11T00:27:29;44.60;;;23.80;;
50585;SDS011;36542;51.700;8.846;2022-12-11T00:29:55;39.97;;;21.83;;
50585;SDS011;36542;51.700;8.846;2022-12-11T00:32:20;45.73;;;24.57;;
50585;SDS011;36542;51.700;8.846;2022-12-11T00:34:46;41.20;;;22.60;;
50585;SDS011;36542;51.700;8.846;2022-12-11T00:37:12;40.37;;;22.60;;
50585;SDS011;36542;51.700;8.846;2022-12-11T00:39:37;38.00;;;21.50;;
50585;SDS011;36542;51.700;8.846;2022-12-11T00:42:04;38.90;;;23.20;;
50585;SDS011;36542;51.700;8.846;2022-12-11T00:44:30;36.97;;;21.40;;
50585;SDS011;36542;51.700;8.846;2022-12-11T00:46:55;37.30;;;21.43;;
50585;SDS011;36542;51.700;8.846;2022-12-11T00:49:21;42.90;;;24.33;;
50585;SDS011;36542;51.700;8.846;2022-12-11T00:51:47;43.70;;;23.70;;
50585;SDS011;36542;51.700;8.846;2022-12-11T00:54:12;43.37;;;23.63;;
50585;SDS011;36542;51.700;8.846;2022-12-11T00:56:38;43.93;;;23.90;;
50585;SDS011;36542;51.700;8.846;2022-12-11T00:59:03;49.63;;;25.77;;
50585;SDS011;36542;51.700;8.846;2022-12-11T01:01:29;46.30;;;25.60;;
50585;SDS011;36542;51.700;8.846;2022-12-11T01:03:54;42.37;;;23.80;;
50585;SDS011;36542;51.700;8.846;2022-12-11T01:06:22;41.17;;;22.40;;
50585;SDS011;36542;51.700;8.846;2022-12-11T01:08:48;44.50;;;23.67;;
50585;SDS011;36542;51.700;8.846;2022-12-11T01:11:37;46.37;;;23.43;;
50585;SDS011;36542;51.700;8.846;2022-12-11T01:14:03;39.80;;;23.23;;
50585;SDS011;36542;51.700;8.846;2022-12-11T01:16:29;44.17;;;22.57;;
50585;SDS011;36542;51.700;8.846;2022-12-11T01:18:55;39.13;;;21.60;;
50585;SDS011;36542;51.700;8.846;2022-12-11T01:21:21;39.73;;;22.20;;
50585;SDS011;36542;51.700;8.846;2022-12-11T01:23:48;40.53;;;22.50;;
50585;SDS011;36542;51.700;8.846;2022-12-11T01:26:14;42.70;;;22.10;;
50585;SDS011;36542;51.700;8.846;2022-12-11T01:28:40;42.47;;;23.77;;
50585;SDS011;36542;51.700;8.846;2022-12-11T01:31:13;41.23;;;23.03;;
50585;SDS011;36542;51.700;8.846;2022-12-11T01:33:39;42.87;;;23.30;;
50585;SDS011;36542;51.700;8.846;2022-12-11T01:36:06;40.80;;;23.40;;
50585;SDS011;36542;51.700;8.846;2022-12-11T01:38:33;42.00;;;23.57;;
50585;SDS011;36542;51.700;8.846;2022-12-11T01:40:58;47.97;;;23.77;;
50585;SDS011;36542;51.700;8.846;2022-12-11T01:43:24;45.53;;;24.00;;
50585;SDS011;36542;51.700;8.846;2022-12-11T01:45:49;44.80;;;23.93;;
50585;SDS011;36542;51.700;8.846;2022-12-11T01:48:18;46.77;;;24.87;;
50585;SDS011;36542;51.700;8.846;2022-12-11T01:50:48;46.87;;;25.03;;
50585;SDS011;36542;51.700;8.846;2022-12-11T01:53:17;47.90;;;26.40;;
50585;SDS011;36542;51.700;8.846;2022-12-11T01:55:47;46.67;;;25.57;;
50585;SDS011;36542;51.700;8.846;2022-12-11T01:58:14;49.37;;;25.03;;
50585;SDS011;36542;51.700;8.846;2022-12-11T02:00:42;43.50;;;24.40;;
50585;SDS011;36542;51.700;8.846;2022-12-11T02:03:07;43.67;;;23.43;;
50585;SDS011;36542;51.700;8.846;2022-12-11T02:05:33;45.37;;;23.73;;
50585;SDS011;36542;51.700;8.846;2022-12-11T02:07:59;44.80;;;24.83;;
50585;SDS011;36542;51.700;8.846;2022-12-11T02:16:18;49.47;;;24.83;;
50585;SDS011;36542;51.700;8.846;2022-12-11T02:21:25;57.40;;;27.37;;
50585;SDS011;36542;51.700;8.846;2022-12-11T02:24:05;55.20;;;27.37;;
50585;SDS011;36542;51.700;8.846;2022-12-11T02:27:10;54.03;;;26.43;;
50585;SDS011;36542;51.700;8.846;2022-12-11T02:30:06;63.77;;;31.37;;
50585;SDS011;36542;51.700;8.846;2022-12-11T02:32:42;68.53;;;31.17;;
50585;SDS011;36542;51.700;8.846;2022-12-11T02:35:18;62.57;;;29.33;;
50585;SDS011;36542;51.700;8.846;2022-12-11T02:37:59;69.27;;;32.53;;
50585;SDS011;36542;51.700;8.846;2022-12-11T02:40:39;60.57;;;31.10;;
50585;SDS011;36542;51.700;8.846;2022-12-11T02:43:09;69.10;;;31.53;;
50585;SDS011;36542;51.700;8.846;2022-12-11T02:45:37;65.73;;;30.90;;
50585;SDS011;36542;51.700;8.846;2022-12-11T02:48:05;69.13;;;32.00;;
50585;SDS011;36542;51.700;8.846;2022-12-11T02:50:35;60.73;;;33.27;;
50585;SDS011;36542;51.700;8.846;2022-12-11T02:53:03;63.77;;;30.23;;
50585;SDS011;36542;51.700;8.846;2022-12-11T02:55:32;62.00;;;31.10;;
50585;SDS011;36542;51.700;8.846;2022-12-11T02:58:04;63.30;;;30.47;;
50585;SDS011;36542;51.700;8.846;2022-12-11T03:00:36;66.60;;;31.30;;
50585;SDS011;36542;51.700;8.846;2022-12-11T03:03:01;67.07;;;31.20;;
50585;SDS011;36542;51.700;8.846;2022-12-11T03:05:27;68.40;;;32.10;;
50585;SDS011;36542;51.700;8.846;2022-12-11T03:07:54;65.67;;;30.67;;
50585;SDS011;36542;51.700;8.846;2022-12-11T03:10:20;70.03;;;32.27;;
50585;SDS011;36542;51.700;8.846;2022-12-11T03:12:47;68.83;;;31.07;;
50585;SDS011;36542;51.700;8.846;2022-12-11T03:15:17;66.67;;;31.50;;
50585;SDS011;36542;51.700;8.846;2022-12-11T03:17:47;71.33;;;32.13;;
50585;SDS011;36542;51.700;8.846;2022-12-11T03:20:44;84.60;;;33.80;;
50585;SDS011;36542;51.700;8.846;2022-12-11T03:23:18;71.87;;;31.07;;
50585;SDS011;36542;51.700;8.846;2022-12-11T03:25:54;77.67;;;32.83;;
50585;SDS011;36542;51.700;8.846;2022-12-11T03:28:28;79.87;;;33.73;;
50585;SDS011;36542;51.700;8.846;2022-12-11T03:30:57;74.93;;;33.80;;
50585;SDS011;36542;51.700;8.846;2022-12-11T03:33:32;84.63;;;36.33;;
50585;SDS011;36542;51.700;8.846;2022-12-11T03:36:05;79.67;;;33.23;;
50585;SDS011;36542;51.700;8.846;2022-12-11T03:38:43;82.43;;;31.83;;
50585;SDS011;36542;51.700;8.846;2022-12-11T03:41:13;79.27;;;32.73;;
50585;SDS011;36542;51.700;8.846;2022-12-11T03:43:41;83.83;;;34.87;;
50585;SDS011;36542;51.700;8.846;2022-12-11T03:46:08;76.60;;;33.50;;
50585;SDS011;36542;51.700;8.846;2022-12-11T03:48:36;88.40;;;34.87;;
50585;SDS011;36542;51.700;8.846;2022-12-11T03:51:05;81.93;;;33.80;;
50585;SDS011;36542;51.700;8.846;2022-12-11T03:53:32;79.30;;;33.47;;
50585;SDS011;36542;51.700;8.846;2022-12-11T03:55:59;87.00;;;34.17;;
50585;SDS011;36542;51.700;8.846;2022-12-11T03:58:26;79.17;;;32.00;;
50585;SDS011;36542;51.700;8.846;2022-12-11T04:00:52;81.33;;;34.83;;
50585;SDS011;36542;51.700;8.846;2022-12-11T04:03:17;86.73;;;35.30;;
50585;SDS011;36542;51.700;8.846;2022-12-11T04:05:44;85.07;;;33.80;;
50585;SDS011;36542;51.700;8.846;2022-12-11T04:08:12;87.67;;;36.37;;
50585;SDS011;36542;51.700;8.846;2022-12-11T04:10:39;97.97;;;35.47;;
50585;SDS011;36542;51.700;8.846;2022-12-11T04:13:05;79.77;;;35.00;;
50585;SDS011;36542;51.700;8.846;2022-12-11T04:15:30;93.57;;;37.93;;
50585;SDS011;36542;51.700;8.846;2022-12-11T04:17:56;91.03;;;35.57;;
50585;SDS011;36542;51.700;8.846;2022-12-11T04:20:40;93.87;;;38.23;;
50585;SDS011;36542;51.700;8.846;2022-12-11T04:23:24;90.40;;;36.57;;
50585;SDS011;36542;51.700;8.846;2022-12-11T04:26:10;96.27;;;38.80;;
50585;SDS011;36542;51.700;8.846;2022-12-11T04:28:38;97.43;;;38.37;;
50585;SDS011;36542;51.700;8.846;2022-12-11T04:31:04;91.47;;;37.67;;
50585;SDS011;36542;51.700;8.846;2022-12-11T04:33:30;98.37;;;40.47;;
50585;SDS011;36542;51.700;8.846;2022-12-11T04:35:56;96.53;;;37.83;;
50585;SDS011;36542;51.700;8.846;2022-12-11T04:38:24;91.93;;;36.97;;
50585;SDS011;36542;51.700;8.846;2022-12-11T04:40:56;85.47;;;35.63;;
50585;SDS011;36542;51.700;8.846;2022-12-11T04:43:22;94.47;;;35.93;;
50585;SDS011;36542;51.700;8.846;2022-12-11T04:45:48;87.70;;;36.60;;
50585;SDS011;36542;51.700;8.846;2022-12-11T04:48:13;89.63;;;34.43;;
50585;SDS011;36542;51.700;8.846;2022-12-11T04:50:39;84.73;;;32.67;;
50585;SDS011;36542;51.700;8.846;2022-12-11T04:53:04;87.97;;;33.23;;
50585;SDS011;36542;51.700;8.846;2022-12-11T04:55:30;91.23;;;35.10;;
50585;SDS011;36542;51.700;8.846;2022-12-11T04:57:55;91.70;;;34.67;;
50585;SDS011;36542;51.700;8.846;2022-12-11T05:00:21;92.30;;;34.90;;
50585;SDS011;36542;51.700;8.846;2022-12-11T05:02:47;83.93;;;33.60;;
50585;SDS011;36542;51.700;8.846;2022-12-11T05:05:12;83.83;;;32.50;;
50585;SDS011;36542;51.700;8.846;2022-12-11T05:07:38;98.80;;;36.47;;
50585;SDS011;36542;51.700;8.846;2022-12-11T05:10:05;87.70;;;34.30;;
50585;SDS011;36542;51.700;8.846;2022-12-11T05:12:31;95.10;;;35.03;;
50585;SDS011;36542;51.700;8.846;2022-12-11T05:14:57;96.03;;;36.30;;
50585;SDS011;36542;51.700;8.846;2022-12-11T05:17:22;93.03;;;33.80;;
50585;SDS011;36542;51.700;8.846;2022-12-11T05:19:49;93.13;;;34.03;;
50585;SDS011;36542;51.700;8.846;2022-12-11T05:22:16;84.70;;;33.93;;
50585;SDS011;36542;51.700;8.846;2022-12-11T05:24:42;84.73;;;34.40;;
50585;SDS011;36542;51.700;8.846;2022-12-11T05:27:08;86.67;;;33.73;;
50585;SDS011;36542;51.700;8.846;2022-12-11T05:29:34;88.73;;;32.03;;
50585;SDS011;36542;51.700;8.846;2022-12-11T05:32:01;87.00;;;32.03;;
50585;SDS011;36542;51.700;8.846;2022-12-11T05:34:26;73.63;;;29.87;;
50585;SDS011;36542;51.700;8.846;2022-12-11T05:36:52;83.70;;;32.53;;
50585;SDS011;36542;51.700;8.846;2022-12-11T05:39:17;72.17;;;29.87;;
50585;SDS011;36542;51.700;8.846;2022-12-11T05:41:43;75.73;;;29.33;;
50585;SDS011;36542;51.700;8.846;2022-12-11T05:44:10;76.20;;;29.70;;
50585;SDS011;36542;51.700;8.846;2022-12-11T05:46:37;77.83;;;31.37;;
50585;SDS011;36542;51.700;8.846;2022-12-11T05:49:03;79.37;;;29.47;;
50585;SDS011;36542;51.700;8.846;2022-12-11T05:51:28;74.73;;;29.10;;
50585;SDS011;36542;51.700;8.846;2022-12-11T05:53:55;70.63;;;27.43;;
50585;SDS011;36542;51.700;8.846;2022-12-11T05:56:23;71.43;;;29.23;;
50585;SDS011;36542;51.700;8.846;2022-12-11T05:58:50;72.37;;;28.13;;
50585;SDS011;36542;51.700;8.846;2022-12-11T06:01:18;64.83;;;28.53;;
50585;SDS011;36542;51.700;8.846;2022-12-11T06:03:46;65.17;;;28.67;;
50585;SDS011;36542;51.700;8.846;2022-12-11T06:06:12;74.40;;;27.97;;
50585;SDS011;36542;51.700;8.846;2022-12-11T06:08:39;76.80;;;28.73;;
50585;SDS011;36542;51.700;8.846;2022-12-11T06:11:04;72.40;;;29.67;;
50585;SDS011;36542;51.700;8.846;2022-12-11T06:13:30;78.27;;;28.13;;
50585;SDS011;36542;51.700;8.846;2022-12-11T06:16:00;74.73;;;29.70;;
50585;SDS011;36542;51.700;8.846;2022-12-11T06:18:26;75.57;;;30.07;;
50585;SDS011;36542;51.700;8.846;2022-12-11T06:20:52;80.47;;;29.77;;
50585;SDS011;36542;51.700;8.846;2022-12-11T06:23:18;72.00;;;28.83;;
50585;SDS011;36542;51.700;8.846;2022-12-11T06:25:44;81.40;;;29.37;;
50585;SDS011;36542;51.700;8.846;2022-12-11T06:28:09;78.80;;;32.63;;
50585;SDS011;36542;51.700;8.846;2022-12-11T06:30:35;85.07;;;30.80;;
50585;SDS011;36542;51.700;8.846;2022-12-11T06:33:01;100.60;;;32.20;;
50585;SDS011;36542;51.700;8.846;2022-12-11T06:35:26;87.93;;;29.30;;
50585;SDS011;36542;51.700;8.846;2022-12-11T06:37:52;88.70;;;32.37;;
50585;SDS011;36542;51.700;8.846;2022-12-11T06:40:17;95.20;;;33.27;;
50585;SDS011;36542;51.700;8.846;2022-12-11T06:42:43;101.40;;;31.77;;
50585;SDS011;36542;51.700;8.846;2022-12-11T06:45:08;97.03;;;30.97;;
50585;SDS011;36542;51.700;8.846;2022-12-11T06:47:34;97.90;;;31.40;;
50585;SDS011;36542;51.700;8.846;2022-12-11T06:50:00;98.43;;;36.43;;
50585;SDS011;36542;51.700;8.846;2022-12-11T06:52:26;105.27;;;33.57;;
50585;SDS011;36542;51.700;8.846;2022-12-11T06:54:52;91.90;;;33.87;;
50585;SDS011;36542;51.700;8.846;2022-12-11T06:57:18;99.67;;;31.93;;
50585;SDS011;36542;51.700;8.846;2022-12-11T06:59:44;105.10;;;34.83;;
50585;SDS011;36542;51.700;8.846;2022-12-11T07:02:13;112.13;;;35.00;;
50585;SDS011;36542;51.700;8.846;2022-12-11T07:04:39;94.87;;;33.73;;
50585;SDS011;36542;51.700;8.846;2022-12-11T07:07:06;105.07;;;33.83;;
50585;SDS011;36542;51.700;8.846;2022-12-11T07:09:32;119.87;;;36.87;;
50585;SDS011;36542;51.700;8.846;2022-12-11T07:11:58;122.13;;;37.60;;
50585;SDS011;36542;51.700;8.846;2022-12-11T07:14:24;124.90;;;37.73;;
50585;SDS011;36542;51.700;8.846;2022-12-11T07:16:49;134.57;;;42.40;;
50585;SDS011;36542;51.700;8.846;2022-12-11T07:19:15;135.07;;;41.27;;
50585;SDS011;36542;51.700;8.846;2022-12-11T07:21:41;143.67;;;42.30;;
50585;SDS011;36542;51.700;8.846;2022-12-11T07:24:06;146.93;;;43.37;;
50585;SDS011;36542;51.700;8.846;2022-12-11T07:26:32;136.77;;;46.17;;
50585;SDS011;36542;51.700;8.846;2022-12-11T07:28:59;169.73;;;50.33;;
50585;SDS011;36542;51.700;8.846;2022-12-11T07:31:25;162.27;;;46.73;;
50585;SDS011;36542;51.700;8.846;2022-12-11T07:33:55;162.03;;;48.90;;
50585;SDS011;36542;51.700;8.846;2022-12-11T07:36:22;147.87;;;48.33;;
50585;SDS011;36542;51.700;8.846;2022-12-11T07:38:48;145.80;;;46.93;;
50585;SDS011;36542;51.700;8.846;2022-12-11T07:41:14;153.60;;;48.73;;
50585;SDS011;36542;51.700;8.846;2022-12-11T07:43:40;140.70;;;49.20;;
50585;SDS011;36542;51.700;8.846;2022-12-11T07:46:08;152.73;;;48.87;;
50585;SDS011;36542;51.700;8.846;2022-12-11T07:48:37;154.67;;;49.30;;
50585;SDS011;36542;51.700;8.846;2022-12-11T07:53:33;152.10;;;51.40;;
50585;SDS011;36542;51.700;8.846;2022-12-11T07:55:59;168.00;;;49.63;;
50585;SDS011;36542;51.700;8.846;2022-12-11T07:58:24;147.37;;;48.83;;
50585;SDS011;36542;51.700;8.846;2022-12-11T08:00:50;147.43;;;46.27;;
50585;SDS011;36542;51.700;8.846;2022-12-11T08:03:15;168.63;;;49.20;;
50585;SDS011;36542;51.700;8.846;2022-12-11T08:05:45;161.20;;;46.80;;
50585;SDS011;36542;51.700;8.846;2022-12-11T08:08:15;154.93;;;44.37;;
50585;SDS011;36542;51.700;8.846;2022-12-11T08:10:41;160.60;;;48.27;;
50585;SDS011;36542;51.700;8.846;2022-12-11T08:13:07;160.60;;;44.80;;
50585;SDS011;36542;51.700;8.846;2022-12-11T08:15:32;169.17;;;47.57;;
50585;SDS011;36542;51.700;8.846;2022-12-11T08:17:59;159.67;;;47.80;;
50585;SDS011;36542;51.700;8.846;2022-12-11T08:20:24;168.60;;;49.43;;
50585;SDS011;36542;51.700;8.846;2022-12-11T08:22:50;154.40;;;49.53;;
50585;SDS011;36542;51.700;8.846;2022-12-11T08:25:15;143.20;;;46.20;;
50585;SDS011;36542;51.700;8.846;2022-12-11T08:27:41;155.73;;;46.33;;
50585;SDS011;36542;51.700;8.846;2022-12-11T08:30:07;148.53;;;46.53;;
50585;SDS011;36542;51.700;8.846;2022-12-11T08:32:33;148.40;;;45.23;;
50585;SDS011;36542;51.700;8.846;2022-12-11T08:34:59;153.47;;;46.47;;
50585;SDS011;36542;51.700;8.846;2022-12-11T08:37:24;131.10;;;43.90;;
50585;SDS011;36542;51.700;8.846;2022-12-11T08:39:50;132.10;;;41.93;;
50585;SDS011;36542;51.700;8.846;2022-12-11T08:42:15;146.83;;;44.40;;
50585;SDS011;36542;51.700;8.846;2022-12-11T08:44:41;131.80;;;41.70;;
50585;SDS011;36542;51.700;8.846;2022-12-11T08:47:06;137.83;;;41.87;;
50585;SDS011;36542;51.700;8.846;2022-12-11T08:49:34;154.43;;;43.47;;
50585;SDS011;36542;51.700;8.846;2022-12-11T08:51:59;142.07;;;44.53;;
50585;SDS011;36542;51.700;8.846;2022-12-11T08:54:27;144.30;;;43.07;;
50585;SDS011;36542;51.700;8.846;2022-12-11T08:56:52;155.53;;;41.80;;
50585;SDS011;36542;51.700;8.846;2022-12-11T08:59:18;136.03;;;42.97;;
50585;SDS011;36542;51.700;8.846;2022-12-11T09:01:43;125.70;;;39.97;;
50585;SDS011;36542;51.700;8.846;2022-12-11T09:04:09;129.23;;;38.10;;
50585;SDS011;36542;51.700;8.846;2022-12-11T09:06:34;119.60;;;38.90;;
50585;SDS011;36542;51.700;8.846;2022-12-11T09:09:00;105.60;;;35.10;;
50585;SDS011;36542;51.700;8.846;2022-12-11T09:11:28;120.70;;;39.63;;
50585;SDS011;36542;51.700;8.846;2022-12-11T09:13:56;113.13;;;38.83;;
50585;SDS011;36542;51.700;8.846;2022-12-11T09:16:22;128.13;;;39.60;;
50585;SDS011;36542;51.700;8.846;2022-12-11T09:18:49;112.57;;;39.33;;
50585;SDS011;36542;51.700;8.846;2022-12-11T09:21:18;123.90;;;42.87;;
50585;SDS011;36542;51.700;8.846;2022-12-11T09:23:46;117.10;;;41.93;;
50585;SDS011;36542;51.700;8.846;2022-12-11T09:26:13;126.00;;;38.90;;
50585;SDS011;36542;51.700;8.846;2022-12-11T09:28:40;118.53;;;38.47;;
50585;SDS011;36542;51.700;8.846;2022-12-11T09:31:08;112.93;;;36.83;;
50585;SDS011;36542;51.700;8.846;2022-12-11T09:33:39;113.87;;;34.87;;
50585;SDS011;36542;51.700;8.846;2022-12-11T09:36:05;118.40;;;37.47;;
50585;SDS011;36542;51.700;8.846;2022-12-11T09:38:32;92.50;;;34.77;;
50585;SDS011;36542;51.700;8.846;2022-12-11T09:40:58;115.40;;;37.37;;
50585;SDS011;36542;51.700;8.846;2022-12-11T09:43:35;100.30;;;35.10;;
50585;SDS011;36542;51.700;8.846;2022-12-11T09:46:04;103.57;;;34.27;;
50585;SDS011;36542;51.700;8.846;2022-12-11T09:48:33;108.30;;;37.57;;
50585;SDS011;36542;51.700;8.846;2022-12-11T09:51:01;105.77;;;35.30;;
50585;SDS011;36542;51.700;8.846;2022-12-11T09:53:34;92.67;;;35.87;;
50585;SDS011;36542;51.700;8.846;2022-12-11T09:56:06;86.60;;;32.17;;
50585;SDS011;36542;51.700;8.846;2022-12-11T09:58:47;94.47;;;32.83;;
50585;SDS011;36542;51.700;8.846;2022-12-11T10:01:56;81.30;;;30.60;;
50585;SDS011;36542;51.700;8.846;2022-12-11T10:07:31;85.03;;;29.57;;
50585;SDS011;36542;51.700;8.846;2022-12-11T10:15:26;85.67;;;30.50;;
50585;SDS011;36542;51.700;8.846;2022-12-11T10:17:53;84.43;;;30.37;;
50585;SDS011;36542;51.700;8.846;2022-12-11T10:20:24;91.43;;;30.37;;
50585;SDS011;36542;51.700;8.846;2022-12-11T10:22:57;85.07;;;31.63;;
50585;SDS011;36542;51.700;8.846;2022-12-11T10:25:25;87.57;;;29.63;;
50585;SDS011;36542;51.700;8.846;2022-12-11T10:27:56;90.57;;;32.53;;
50585;SDS011;36542;51.700;8.846;2022-12-11T10:30:24;88.37;;;31.27;;
50585;SDS011;36542;51.700;8.846;2022-12-11T10:35:35;72.70;;;28.83;;
50585;SDS011;36542;51.700;8.846;2022-12-11T10:40:42;83.67;;;31.57;;
50585;SDS011;36542;51.700;8.846;2022-12-11T10:43:14;88.00;;;32.27;;
50585;SDS011;36542;51.700;8.846;2022-12-11T10:45:48;88.20;;;29.97;;
50585;SDS011;36542;51.700;8.846;2022-12-11T10:48:14;88.10;;;31.20;;
50585;SDS011;36542;51.700;8.846;2022-12-11T10:50:40;89.07;;;30.43;;
50585;SDS011;36542;51.700;8.846;2022-12-11T10:53:18;89.57;;;33.57;;
50585;SDS011;36542;51.700;8.846;2022-12-11T10:55:48;90.07;;;31.70;;
50585;SDS011;36542;51.700;8.846;2022-12-11T10:58:16;88.60;;;32.33;;
50585;SDS011;36542;51.700;8.846;2022-12-11T11:00:48;87.60;;;32.60;;
50585;SDS011;36542;51.700;8.846;2022-12-11T11:03:41;94.70;;;33.80;;
50585;SDS011;36542;51.700;8.846;2022-12-11T11:06:28;74.43;;;27.93;;
50585;SDS011;36542;51.700;8.846;2022-12-11T11:08:55;77.33;;;28.77;;
50585;SDS011;36542;51.700;8.846;2022-12-11T11:16:47;89.73;;;31.43;;
50585;SDS011;36542;51.700;8.846;2022-12-11T11:19:31;87.37;;;29.30;;
50585;SDS011;36542;51.700;8.846;2022-12-11T11:22:00;72.63;;;28.00;;
50585;SDS011;36542;51.700;8.846;2022-12-11T11:27:10;76.10;;;28.20;;
50585;SDS011;36542;51.700;8.846;2022-12-11T11:30:05;77.73;;;29.50;;
50585;SDS011;36542;51.700;8.846;2022-12-11T11:32:42;83.23;;;31.50;;
50585;SDS011;36542;51.700;8.846;2022-12-11T11:37:36;76.50;;;30.57;;
50585;SDS011;36542;51.700;8.846;2022-12-11T11:40:10;85.20;;;32.60;;
50585;SDS011;36542;51.700;8.846;2022-12-11T11:45:16;74.50;;;31.53;;
50585;SDS011;36542;51.700;8.846;2022-12-11T11:48:05;88.00;;;32.53;;
50585;SDS011;36542;51.700;8.846;2022-12-11T11:50:45;84.70;;;32.87;;
50585;SDS011;36542;51.700;8.846;2022-12-11T11:53:29;82.60;;;30.87;;
50585;SDS011;36542;51.700;8.846;2022-12-11T11:59:02;72.93;;;29.80;;
50585;SDS011;36542;51.700;8.846;2022-12-11T12:01:49;76.90;;;29.83;;
50585;SDS011;36542;51.700;8.846;2022-12-11T12:04:17;70.30;;;31.27;;
50585;SDS011;36542;51.700;8.846;2022-12-11T12:06:51;81.10;;;31.03;;
50585;SDS011;36542;51.700;8.846;2022-12-11T12:09:38;75.20;;;30.53;;
50585;SDS011;36542;51.700;8.846;2022-12-11T12:12:14;70.50;;;28.80;;
50585;SDS011;36542;51.700;8.846;2022-12-11T12:14:53;62.23;;;27.83;;
50585;SDS011;36542;51.700;8.846;2022-12-11T12:17:35;61.43;;;26.30;;
50585;SDS011;36542;51.700;8.846;2022-12-11T12:22:55;62.13;;;26.73;;
50585;SDS011;36542;51.700;8.846;2022-12-11T12:25:34;60.93;;;27.97;;
50585;SDS011;36542;51.700;8.846;2022-12-11T12:31:10;62.67;;;27.90;;
50585;SDS011;36542;51.700;8.846;2022-12-11T12:33:48;54.67;;;24.97;;
50585;SDS011;36542;51.700;8.846;2022-12-11T12:36:20;59.17;;;25.33;;
50585;SDS011;36542;51.700;8.846;2022-12-11T12:41:52;53.30;;;24.60;;
50585;SDS011;36542;51.700;8.846;2022-12-11T12:44:39;53.47;;;23.97;;
50585;SDS011;36542;51.700;8.846;2022-12-11T12:47:14;56.73;;;23.77;;
50585;SDS011;36542;51.700;8.846;2022-12-11T12:49:43;54.00;;;24.43;;
50585;SDS011;36542;51.700;8.846;2022-12-11T12:52:12;53.27;;;25.60;;
50585;SDS011;36542;51.700;8.846;2022-12-11T12:54:43;45.37;;;21.60;;
50585;SDS011;36542;51.700;8.846;2022-12-11T12:57:32;49.70;;;23.67;;
50585;SDS011;36542;51.700;8.846;2022-12-11T12:59:59;53.93;;;25.37;;
50585;SDS011;36542;51.700;8.846;2022-12-11T13:02:24;49.63;;;22.23;;
50585;SDS011;36542;51.700;8.846;2022-12-11T13:05:00;51.13;;;23.47;;
50585;SDS011;36542;51.700;8.846;2022-12-11T13:07:31;50.83;;;23.50;;
50585;SDS011;36542;51.700;8.846;2022-12-11T13:10:20;49.10;;;23.93;;
50585;SDS011;36542;51.700;8.846;2022-12-11T13:12:49;51.27;;;20.77;;
50585;SDS011;36542;51.700;8.846;2022-12-11T13:17:51;47.57;;;21.13;;
50585;SDS011;36542;51.700;8.846;2022-12-11T13:20:19;46.27;;;21.80;;
50585;SDS011;36542;51.700;8.846;2022-12-11T13:23:29;51.80;;;23.97;;
50585;SDS011;36542;51.700;8.846;2022-12-11T13:28:26;48.60;;;23.87;;
50585;SDS011;36542;51.700;8.846;2022-12-11T13:30:58;50.10;;;24.53;;
50585;SDS011;36542;51.700;8.846;2022-12-11T18:19:57;72.00;;;30.23;;
50585;SDS011;36542;51.700;8.846;2022-12-11T18:22:22;72.37;;;32.43;;
50585;SDS011;36542;51.700;8.846;2022-12-11T18:24:48;70.27;;;29.67;;
50585;SDS011;36542;51.700;8.846;2022-12-11T18:27:14;69.33;;;31.63;;
50585;SDS011;36542;51.700;8.846;2022-12-11T18:29:39;82.47;;;35.03;;
50585;SDS011;36542;51.700;8.846;2022-12-11T18:32:05;67.90;;;30.43;;
50585;SDS011;36542;51.700;8.846;2022-12-11T18:34:31;64.77;;;30.60;;
50585;SDS011;36542;51.700;8.846;2022-12-11T18:36:57;71.30;;;30.57;;
50585;SDS011;36542;51.700;8.846;2022-12-11T18:39:23;72.40;;;30.63;;
50585;SDS011;36542;51.700;8.846;2022-12-11T18:54:31;65.37;;;30.57;;
50585;SDS011;36542;51.700;8.846;2022-12-11T18:56:56;66.73;;;29.40;;
50585;SDS011;36542;51.700;8.846;2022-12-11T18:59:22;63.57;;;29.77;;
50585;SDS011;36542;51.700;8.846;2022-12-11T19:01:47;64.83;;;31.17;;
50585;SDS011;36542;51.700;8.846;2022-12-11T19:04:13;66.73;;;31.30;;
50585;SDS011;36542;51.700;8.846;2022-12-11T19:06:39;66.17;;;33.30;;
50585;SDS011;36542;51.700;8.846;2022-12-11T19:09:05;70.40;;;32.23;;
50585;SDS011;36542;51.700;8.846;2022-12-11T19:11:32;67.70;;;31.00;;
50585;SDS011;36542;51.700;8.846;2022-12-11T19:13:58;65.23;;;31.97;;
50585;SDS011;36542;51.700;8.846;2022-12-11T19:16:26;72.73;;;32.27;;
50585;SDS011;36542;51.700;8.846;2022-12-11T19:22:10;69.40;;;31.27;;
50585;SDS011;36542;51.700;8.846;2022-12-11T19:30:33;62.00;;;31.70;;
50585;SDS011;36542;51.700;8.846;2022-12-11T19:32:59;86.50;;;40.63;;
50585;SDS011;36542;51.700;8.846;2022-12-11T19:35:24;63.73;;;33.30;;
50585;SDS011;36542;51.700;8.846;2022-12-11T19:37:50;59.37;;;32.43;;
50585;SDS011;36542;51.700;8.846;2022-12-11T19:40:15;57.93;;;30.60;;
50585;SDS011;36542;51.700;8.846;2022-12-11T19:42:42;50.57;;;28.47;;
50585;SDS011;36542;51.700;8.846;2022-12-11T19:45:08;55.07;;;27.87;;
50585;SDS011;36542;51.700;8.846;2022-12-11T19:47:34;47.30;;;25.90;;
50585;SDS011;36542;51.700;8.846;2022-12-11T19:49:59;48.33;;;25.20;;
50585;SDS011;36542;51.700;8.846;2022-12-11T19:52:25;43.70;;;23.17;;
50585;SDS011;36542;51.700;8.846;2022-12-11T19:54:51;48.03;;;23.23;;
50585;SDS011;36542;51.700;8.846;2022-12-11T19:57:17;44.63;;;23.50;;
50585;SDS011;36542;51.700;8.846;2022-12-11T19:59:42;51.60;;;24.83;;
50585;SDS011;36542;51.700;8.846;2022-12-11T20:02:09;47.87;;;24.57;;
50585;SDS011;36542;51.700;8.846;2022-12-11T20:04:36;48.70;;;23.77;;
50585;SDS011;36542;51.700;8.846;2022-12-11T20:07:01;41.20;;;22.40;;
50585;SDS011;36542;51.700;8.846;2022-12-11T20:09:28;43.37;;;22.07;;
50585;SDS011;36542;51.700;8.846;2022-12-11T20:11:54;57.67;;;25.90;;
50585;SDS011;36542;51.700;8.846;2022-12-11T20:14:23;55.30;;;24.87;;
50585;SDS011;36542;51.700;8.846;2022-12-11T20:16:50;48.93;;;23.33;;
50585;SDS011;36542;51.700;8.846;2022-12-11T20:19:17;50.80;;;24.33;;
50585;SDS011;36542;51.700;8.846;2022-12-11T20:21:42;51.23;;;24.60;;
50585;SDS011;36542;51.700;8.846;2022-12-11T20:24:08;50.30;;;23.80;;
50585;SDS011;36542;51.700;8.846;2022-12-11T20:26:34;53.87;;;24.43;;
50585;SDS011;36542;51.700;8.846;2022-12-11T20:29:02;51.77;;;24.27;;
50585;SDS011;36542;51.700;8.846;2022-12-11T20:31:31;50.03;;;24.27;;